Weather at Ärna Air Base

Public forecast

Using degrees Celsius for public forecast. Weather courtesy of forecast.io.

Current aviation weather report (METAR) for Ärna Air Base

Report is more than 6 hours old.

2022/11/14 15:20 (retrieved 2 years ago)

ESCM 141520Z AUTO 25003KT 4200 DZ BR VV005 06/06 Q1022

Closest aviation forecast (TAF) to Ärna Air Base

Forecast is more than 12 hours old.

Closest forecast is Stockholm-Arlanda Airport, 17.8 nm (33.0 km) SE.

2023/02/22 21:21 (retrieved 1 year ago)

TAF ESSA 222030Z 2221/2321 17006KT 9999 BKN030 BECMG 2303/2305 3000 -SN TEMPO 2305/2316 1200 SN BKN007 BECMG 2316/2318 9999 NSW SCT020 PROB40 2318/2321 BKN006